Weather at Dean Kamen Heliport

Public forecast

Using degrees Fahrenheit for public forecast. Weather courtesy of forecast.io.

Closest aviation weather report (METAR) to Dean Kamen Heliport

Closest report is Manchester-Boston Regional Airport, 3.5 nm (6.5 km) ENE. Retrieved 2020/11/23 17:53 UTC (55 minutes ago):

KMHT 231753Z 33006KT 10SM -RA BKN070 OVC085 08/06 A2974 RMK AO2 SLP086 P0003 60137 T00830061 10089 20072 58020

Closest aviation forecast (TAF) to Dean Kamen Heliport

Closest forecast is Manchester-Boston Regional Airport, 3.5 nm (6.5 km) ENE. Retrieved 2020/11/23 18:39 UTC (9 minutes ago):

TAF KMHT 231737Z 2318/2418 31010KT 4SM -RA BR BKN025 FM232000 31012G22KT P6SM BKN060 FM240500 30009KT P6SM FEW250 FM241400 31012G22KT P6SM SKC